Airfield :
LOGIN :

Register | Disclaimer

   EN    FR    IT 

 










Legend :    VFR   Marginal VFR   IFR   Intensive IFR   Very Intensive IFR
Visi :
Ceiling :
>= 8 km
>= 3000ft
5 to 8 km
1000 to 3000 ft
1500m to 5 km
500 to 1000 ft
800 to 1500m
200 to 500 ft
< 800m
< 200 ft
Symbols :   Thunderstorms  Fog  Heavy snow  Heavy precipitations  Wind > 20 kt
SIGMETs :     Misc.  Thunderstorms  Icing  Turbulence  Mountain Waves  Volcanic Ashes







- Airport Elevation : 121 ft
- IATA code : HUY
- Download approach charts


EGNJ - Humberside

CURRENT METAR :
  • 171450Z 36008KT 300V030 9999 FEW039 17/03 Q1026

EXPIRED METARs :
  • 171420Z 34010KT 9999 FEW039 16/02 Q1026
  • 171350Z 36010KT 9999 FEW039 17/03 Q1026
  • 171320Z 33008KT 290V360 9999 FEW038 17/05 Q1026
  • 171250Z 35010KT 300V020 9999 FEW039 SCT046 17/05 Q1026
  • 171220Z 33009KT 290V010 9999 SCT035 17/06 Q1026

TAF TAF EGNJ
Valid from the 17 at 15:00 until the 18 at 00:00 UTC


171353Z 1715/1724 32011KT 9999 FEW035
BECMG 1715/1718 03008KT
ATIS : +44 1652 682 020
No reported NOTAMs for that airfield.



MET'MAP, your aeronautical weather chart ! - Copyright ORBIFLY December 2007 - Disclaimer

ORBIFLY MET'MAP TEAM :

Programming & Development : Alexandra Zaïnal
Concept & Development : Baudouin d'Aumeries
Co-Development & Prog : Marc-Olivier Méhu
Technical & hardware support : Manuel Goepfert

Contact : metmap@orbifly.com




SOURCES & CREDITS :

   NOAA